sim
Sign-in with your pilot id or email,
or register
Callsign
Passwort

Schedule Details

Flight Number: OEO3527
Departure: Zagreb Franjo Tudman Airport (LDZA) at 14:55
Arrival: Munich Airport (EDDM) at 16:10

Weather Information
Getting current METAR information for LDZA 221600Z VRB02KT 9999 FEW030TCU FEW040 23/18 Q1013 TEMPO TSRA FEW030CB SCT035
Getting current METAR information for EDDM 221620Z VRB02KT 9999 FEW040CB 22/14 Q1010 NOSIG

Schedule Frequency

Route Map